sensor_id;sensor_type;location;lat;lon;timestamp;temperature;humidity
56512;DHT22;42408;53.238;5.686;2024-03-29T00:01:48;9.70;99.90
56512;DHT22;42408;53.238;5.686;2024-03-29T00:04:13;9.80;99.90
56512;DHT22;42408;53.238;5.686;2024-03-29T00:06:39;9.80;99.90
56512;DHT22;42408;53.238;5.686;2024-03-29T00:09:05;9.80;99.90
56512;DHT22;42408;53.238;5.686;2024-03-29T00:11:31;9.80;99.90
56512;DHT22;42408;53.238;5.686;2024-03-29T00:13:57;9.90;99.90
56512;DHT22;42408;53.238;5.686;2024-03-29T00:16:23;9.90;99.90
56512;DHT22;42408;53.238;5.686;2024-03-29T00:18:51;9.90;99.90
56512;DHT22;42408;53.238;5.686;2024-03-29T00:21:17;9.90;99.90
56512;DHT22;42408;53.238;5.686;2024-03-29T00:23:43;10.00;99.90
56512;DHT22;42408;53.238;5.686;2024-03-29T00:26:12;10.00;99.90
56512;DHT22;42408;53.238;5.686;2024-03-29T00:28:39;10.00;99.90
56512;DHT22;42408;53.238;5.686;2024-03-29T00:31:04;10.00;99.90
56512;DHT22;42408;53.238;5.686;2024-03-29T00:33:30;9.90;99.90
56512;DHT22;42408;53.238;5.686;2024-03-29T00:35:56;10.00;99.90
56512;DHT22;42408;53.238;5.686;2024-03-29T00:38:22;9.90;99.90
56512;DHT22;42408;53.238;5.686;2024-03-29T00:40:47;10.00;99.90
56512;DHT22;42408;53.238;5.686;2024-03-29T00:43:13;10.00;99.90
56512;DHT22;42408;53.238;5.686;2024-03-29T00:45:40;10.00;99.90
56512;DHT22;42408;53.238;5.686;2024-03-29T00:48:06;10.00;99.90
56512;DHT22;42408;53.238;5.686;2024-03-29T00:50:32;10.00;99.90
56512;DHT22;42408;53.238;5.686;2024-03-29T00:52:57;9.90;99.90
56512;DHT22;42408;53.238;5.686;2024-03-29T00:55:23;9.90;99.90
56512;DHT22;42408;53.238;5.686;2024-03-29T00:57:49;9.80;99.90
56512;DHT22;42408;53.238;5.686;2024-03-29T01:00:14;9.90;99.90
56512;DHT22;42408;53.238;5.686;2024-03-29T01:02:40;9.80;99.90
56512;DHT22;42408;53.238;5.686;2024-03-29T01:05:06;9.80;99.90
56512;DHT22;42408;53.238;5.686;2024-03-29T01:07:33;9.80;99.90
56512;DHT22;42408;53.238;5.686;2024-03-29T01:09:58;9.80;99.90
56512;DHT22;42408;53.238;5.686;2024-03-29T01:12:24;9.90;99.90
56512;DHT22;42408;53.238;5.686;2024-03-29T01:14:50;9.80;99.90
56512;DHT22;42408;53.238;5.686;2024-03-29T01:17:16;9.80;99.90
56512;DHT22;42408;53.238;5.686;2024-03-29T01:19:41;9.70;99.90
56512;DHT22;42408;53.238;5.686;2024-03-29T01:22:07;9.70;99.90
56512;DHT22;42408;53.238;5.686;2024-03-29T01:24:33;9.60;99.90
56512;DHT22;42408;53.238;5.686;2024-03-29T01:26:59;9.70;99.90
56512;DHT22;42408;53.238;5.686;2024-03-29T01:29:25;9.70;99.90
56512;DHT22;42408;53.238;5.686;2024-03-29T01:31:51;9.60;99.90
56512;DHT22;42408;53.238;5.686;2024-03-29T01:34:16;9.60;99.90
56512;DHT22;42408;53.238;5.686;2024-03-29T01:36:43;9.60;99.90
56512;DHT22;42408;53.238;5.686;2024-03-29T01:39:10;9.60;99.90
56512;DHT22;42408;53.238;5.686;2024-03-29T01:41:39;9.50;99.90
56512;DHT22;42408;53.238;5.686;2024-03-29T01:44:05;9.40;99.90
56512;DHT22;42408;53.238;5.686;2024-03-29T01:46:34;9.30;99.90
56512;DHT22;42408;53.238;5.686;2024-03-29T01:49:00;9.30;99.90
56512;DHT22;42408;53.238;5.686;2024-03-29T01:51:26;9.30;99.90
56512;DHT22;42408;53.238;5.686;2024-03-29T01:53:54;9.60;99.90
56512;DHT22;42408;53.238;5.686;2024-03-29T01:56:21;9.20;99.90
56512;DHT22;42408;53.238;5.686;2024-03-29T01:58:49;9.20;99.90
56512;DHT22;42408;53.238;5.686;2024-03-29T02:01:16;9.10;99.90
56512;DHT22;42408;53.238;5.686;2024-03-29T02:03:42;9.00;99.90
56512;DHT22;42408;53.238;5.686;2024-03-29T02:06:08;9.00;99.90
56512;DHT22;42408;53.238;5.686;2024-03-29T02:08:36;9.00;99.90
56512;DHT22;42408;53.238;5.686;2024-03-29T02:11:03;8.90;99.90
56512;DHT22;42408;53.238;5.686;2024-03-29T02:13:29;9.00;99.90
56512;DHT22;42408;53.238;5.686;2024-03-29T02:15:55;9.00;99.90
56512;DHT22;42408;53.238;5.686;2024-03-29T02:18:21;8.90;99.90
56512;DHT22;42408;53.238;5.686;2024-03-29T02:20:46;9.00;99.90
56512;DHT22;42408;53.238;5.686;2024-03-29T02:23:20;8.90;99.90
56512;DHT22;42408;53.238;5.686;2024-03-29T02:25:49;8.80;99.90
56512;DHT22;42408;53.238;5.686;2024-03-29T02:28:16;8.80;99.90
56512;DHT22;42408;53.238;5.686;2024-03-29T02:30:42;8.70;99.90
56512;DHT22;42408;53.238;5.686;2024-03-29T02:33:07;8.70;99.90
56512;DHT22;42408;53.238;5.686;2024-03-29T02:35:33;8.70;99.90
56512;DHT22;42408;53.238;5.686;2024-03-29T02:37:59;8.60;99.90
56512;DHT22;42408;53.238;5.686;2024-03-29T02:40:24;8.60;99.90
56512;DHT22;42408;53.238;5.686;2024-03-29T02:42:50;8.50;99.90
56512;DHT22;42408;53.238;5.686;2024-03-29T02:45:17;8.50;99.90
56512;DHT22;42408;53.238;5.686;2024-03-29T02:47:43;8.50;99.90
56512;DHT22;42408;53.238;5.686;2024-03-29T02:50:11;8.50;99.90
56512;DHT22;42408;53.238;5.686;2024-03-29T02:52:37;8.50;99.90
56512;DHT22;42408;53.238;5.686;2024-03-29T02:55:03;8.40;99.90
56512;DHT22;42408;53.238;5.686;2024-03-29T02:57:29;8.50;99.90
56512;DHT22;42408;53.238;5.686;2024-03-29T02:59:54;8.50;99.90
56512;DHT22;42408;53.238;5.686;2024-03-29T03:02:20;8.40;99.90
56512;DHT22;42408;53.238;5.686;2024-03-29T03:04:45;8.40;99.90
56512;DHT22;42408;53.238;5.686;2024-03-29T03:07:11;8.50;99.90
56512;DHT22;42408;53.238;5.686;2024-03-29T03:09:55;8.50;99.90
56512;DHT22;42408;53.238;5.686;2024-03-29T03:12:40;8.50;99.90
56512;DHT22;42408;53.238;5.686;2024-03-29T03:15:06;8.60;99.90
56512;DHT22;42408;53.238;5.686;2024-03-29T03:17:32;8.50;99.90
56512;DHT22;42408;53.238;5.686;2024-03-29T03:19:57;8.50;99.90
56512;DHT22;42408;53.238;5.686;2024-03-29T03:22:24;8.50;99.90
56512;DHT22;42408;53.238;5.686;2024-03-29T03:24:49;8.50;99.90
56512;DHT22;42408;53.238;5.686;2024-03-29T03:27:15;8.60;99.90
56512;DHT22;42408;53.238;5.686;2024-03-29T03:29:41;8.50;99.90
56512;DHT22;42408;53.238;5.686;2024-03-29T03:32:06;8.50;99.90
56512;DHT22;42408;53.238;5.686;2024-03-29T03:34:32;8.60;99.90
56512;DHT22;42408;53.238;5.686;2024-03-29T03:36:58;8.50;99.90
56512;DHT22;42408;53.238;5.686;2024-03-29T03:39:24;8.50;99.90
56512;DHT22;42408;53.238;5.686;2024-03-29T03:41:50;8.60;99.90
56512;DHT22;42408;53.238;5.686;2024-03-29T03:44:16;8.60;99.90
56512;DHT22;42408;53.238;5.686;2024-03-29T03:46:41;8.60;99.90
56512;DHT22;42408;53.238;5.686;2024-03-29T03:49:07;8.60;99.90
56512;DHT22;42408;53.238;5.686;2024-03-29T03:51:33;8.70;99.90
56512;DHT22;42408;53.238;5.686;2024-03-29T03:53:58;8.70;99.90
56512;DHT22;42408;53.238;5.686;2024-03-29T03:56:24;8.70;99.90
56512;DHT22;42408;53.238;5.686;2024-03-29T03:58:49;8.60;99.90
56512;DHT22;42408;53.238;5.686;2024-03-29T04:01:15;8.60;99.90
56512;DHT22;42408;53.238;5.686;2024-03-29T04:03:41;8.70;99.90
56512;DHT22;42408;53.238;5.686;2024-03-29T04:06:06;8.70;99.90
56512;DHT22;42408;53.238;5.686;2024-03-29T04:08:32;8.70;99.90
56512;DHT22;42408;53.238;5.686;2024-03-29T04:11:02;8.60;99.90
56512;DHT22;42408;53.238;5.686;2024-03-29T04:13:28;8.60;99.90
56512;DHT22;42408;53.238;5.686;2024-03-29T04:15:53;8.60;99.90
56512;DHT22;42408;53.238;5.686;2024-03-29T04:18:25;8.60;99.90
56512;DHT22;42408;53.238;5.686;2024-03-29T04:20:59;8.60;99.90
56512;DHT22;42408;53.238;5.686;2024-03-29T04:23:25;8.70;99.90
56512;DHT22;42408;53.238;5.686;2024-03-29T04:25:58;8.70;99.90
56512;DHT22;42408;53.238;5.686;2024-03-29T04:28:24;8.70;99.90
56512;DHT22;42408;53.238;5.686;2024-03-29T04:30:54;8.70;99.90
56512;DHT22;42408;53.238;5.686;2024-03-29T04:33:20;8.70;99.90
56512;DHT22;42408;53.238;5.686;2024-03-29T04:38:22;8.70;99.90
56512;DHT22;42408;53.238;5.686;2024-03-29T04:40:48;8.70;99.90
56512;DHT22;42408;53.238;5.686;2024-03-29T04:43:14;8.70;99.90
56512;DHT22;42408;53.238;5.686;2024-03-29T04:45:40;8.70;99.90
56512;DHT22;42408;53.238;5.686;2024-03-29T04:48:06;8.70;99.90
56512;DHT22;42408;53.238;5.686;2024-03-29T04:50:31;8.70;99.90
56512;DHT22;42408;53.238;5.686;2024-03-29T04:52:57;8.80;99.90
56512;DHT22;42408;53.238;5.686;2024-03-29T04:55:23;8.70;99.90
56512;DHT22;42408;53.238;5.686;2024-03-29T04:57:48;8.80;99.90
56512;DHT22;42408;53.238;5.686;2024-03-29T05:00:14;8.80;99.90
56512;DHT22;42408;53.238;5.686;2024-03-29T05:02:40;8.80;99.90
56512;DHT22;42408;53.238;5.686;2024-03-29T05:05:05;8.90;99.90
56512;DHT22;42408;53.238;5.686;2024-03-29T05:07:31;8.90;99.90
56512;DHT22;42408;53.238;5.686;2024-03-29T05:09:57;9.00;99.90
56512;DHT22;42408;53.238;5.686;2024-03-29T05:12:23;9.00;99.90
56512;DHT22;42408;53.238;5.686;2024-03-29T05:14:48;9.00;99.90
56512;DHT22;42408;53.238;5.686;2024-03-29T05:17:15;9.00;99.90
56512;DHT22;42408;53.238;5.686;2024-03-29T05:19:41;9.10;99.90
56512;DHT22;42408;53.238;5.686;2024-03-29T05:22:06;9.00;99.90
56512;DHT22;42408;53.238;5.686;2024-03-29T05:24:32;9.10;99.90
56512;DHT22;42408;53.238;5.686;2024-03-29T05:26:58;9.10;99.90
56512;DHT22;42408;53.238;5.686;2024-03-29T05:29:23;9.10;99.90
56512;DHT22;42408;53.238;5.686;2024-03-29T05:31:49;9.00;99.90
56512;DHT22;42408;53.238;5.686;2024-03-29T05:34:15;9.00;99.90
56512;DHT22;42408;53.238;5.686;2024-03-29T05:36:40;9.00;99.90
56512;DHT22;42408;53.238;5.686;2024-03-29T05:39:06;9.10;99.90
56512;DHT22;42408;53.238;5.686;2024-03-29T05:41:32;9.10;99.90
56512;DHT22;42408;53.238;5.686;2024-03-29T05:43:58;9.10;99.90
56512;DHT22;42408;53.238;5.686;2024-03-29T05:46:23;9.10;99.90
56512;DHT22;42408;53.238;5.686;2024-03-29T05:48:49;9.00;99.90
56512;DHT22;42408;53.238;5.686;2024-03-29T05:51:15;9.00;99.90
56512;DHT22;42408;53.238;5.686;2024-03-29T05:53:40;9.00;99.90
56512;DHT22;42408;53.238;5.686;2024-03-29T05:56:07;9.00;99.90
56512;DHT22;42408;53.238;5.686;2024-03-29T05:58:36;9.00;99.90
56512;DHT22;42408;53.238;5.686;2024-03-29T06:01:02;9.00;99.90
56512;DHT22;42408;53.238;5.686;2024-03-29T06:03:27;9.00;99.90
56512;DHT22;42408;53.238;5.686;2024-03-29T06:05:54;9.00;99.90
56512;DHT22;42408;53.238;5.686;2024-03-29T06:08:19;9.00;99.90
56512;DHT22;42408;53.238;5.686;2024-03-29T06:10:46;9.00;99.90
56512;DHT22;42408;53.238;5.686;2024-03-29T06:13:12;9.00;99.90
56512;DHT22;42408;53.238;5.686;2024-03-29T06:15:55;9.00;99.90
56512;DHT22;42408;53.238;5.686;2024-03-29T06:18:39;9.10;99.90
56512;DHT22;42408;53.238;5.686;2024-03-29T06:21:05;9.10;99.90
56512;DHT22;42408;53.238;5.686;2024-03-29T06:23:31;9.20;99.90
56512;DHT22;42408;53.238;5.686;2024-03-29T06:25:56;9.20;99.90
56512;DHT22;42408;53.238;5.686;2024-03-29T06:28:22;9.30;99.90
56512;DHT22;42408;53.238;5.686;2024-03-29T06:30:47;9.20;99.90
56512;DHT22;42408;53.238;5.686;2024-03-29T06:33:13;9.30;99.90
56512;DHT22;42408;53.238;5.686;2024-03-29T06:35:39;9.30;99.90
56512;DHT22;42408;53.238;5.686;2024-03-29T06:38:04;9.40;99.90
56512;DHT22;42408;53.238;5.686;2024-03-29T06:40:30;9.40;99.90
56512;DHT22;42408;53.238;5.686;2024-03-29T06:42:55;9.50;99.90
56512;DHT22;42408;53.238;5.686;2024-03-29T06:45:23;9.50;99.90
56512;DHT22;42408;53.238;5.686;2024-03-29T06:47:49;9.50;99.90
56512;DHT22;42408;53.238;5.686;2024-03-29T06:50:14;9.50;99.90
56512;DHT22;42408;53.238;5.686;2024-03-29T06:52:40;9.60;99.90
56512;DHT22;42408;53.238;5.686;2024-03-29T06:55:06;9.70;99.90
56512;DHT22;42408;53.238;5.686;2024-03-29T06:57:32;9.70;99.90
56512;DHT22;42408;53.238;5.686;2024-03-29T06:59:58;9.80;99.90
56512;DHT22;42408;53.238;5.686;2024-03-29T07:02:24;9.80;99.90
56512;DHT22;42408;53.238;5.686;2024-03-29T07:04:49;9.80;99.90
56512;DHT22;42408;53.238;5.686;2024-03-29T07:07:15;10.00;99.90
56512;DHT22;42408;53.238;5.686;2024-03-29T07:09:41;10.00;99.90
56512;DHT22;42408;53.238;5.686;2024-03-29T07:12:06;10.10;99.90
56512;DHT22;42408;53.238;5.686;2024-03-29T07:14:32;10.20;99.90
56512;DHT22;42408;53.238;5.686;2024-03-29T07:16:59;10.20;99.90
56512;DHT22;42408;53.238;5.686;2024-03-29T07:19:24;10.10;99.90
56512;DHT22;42408;53.238;5.686;2024-03-29T07:21:50;10.10;99.90
56512;DHT22;42408;53.238;5.686;2024-03-29T07:24:19;10.10;99.90
56512;DHT22;42408;53.238;5.686;2024-03-29T07:26:44;10.10;99.90
56512;DHT22;42408;53.238;5.686;2024-03-29T07:29:11;10.10;99.90
56512;DHT22;42408;53.238;5.686;2024-03-29T07:31:37;10.10;99.90
56512;DHT22;42408;53.238;5.686;2024-03-29T07:34:02;10.10;99.90
56512;DHT22;42408;53.238;5.686;2024-03-29T07:36:28;10.10;99.90
56512;DHT22;42408;53.238;5.686;2024-03-29T07:39:01;10.20;99.90
56512;DHT22;42408;53.238;5.686;2024-03-29T07:41:27;10.20;99.90
56512;DHT22;42408;53.238;5.686;2024-03-29T07:43:54;10.30;99.90
56512;DHT22;42408;53.238;5.686;2024-03-29T07:46:23;10.30;99.90
56512;DHT22;42408;53.238;5.686;2024-03-29T07:48:49;10.30;99.90
56512;DHT22;42408;53.238;5.686;2024-03-29T07:51:15;10.30;99.90
56512;DHT22;42408;53.238;5.686;2024-03-29T07:53:40;10.40;99.90
56512;DHT22;42408;53.238;5.686;2024-03-29T07:56:06;10.40;99.90
56512;DHT22;42408;53.238;5.686;2024-03-29T07:58:32;10.50;99.90
56512;DHT22;42408;53.238;5.686;2024-03-29T08:00:57;10.60;99.90
56512;DHT22;42408;53.238;5.686;2024-03-29T08:03:23;10.60;99.90
56512;DHT22;42408;53.238;5.686;2024-03-29T08:06:02;10.70;99.90
56512;DHT22;42408;53.238;5.686;2024-03-29T08:08:32;10.90;99.90
56512;DHT22;42408;53.238;5.686;2024-03-29T08:10:58;11.00;99.90
56512;DHT22;42408;53.238;5.686;2024-03-29T08:13:27;11.00;99.90
56512;DHT22;42408;53.238;5.686;2024-03-29T08:16:00;11.10;99.90
56512;DHT22;42408;53.238;5.686;2024-03-29T08:18:26;11.30;99.90
56512;DHT22;42408;53.238;5.686;2024-03-29T08:20:52;11.50;99.90
56512;DHT22;42408;53.238;5.686;2024-03-29T08:23:21;11.60;99.90
56512;DHT22;42408;53.238;5.686;2024-03-29T08:25:47;11.90;99.90
56512;DHT22;42408;53.238;5.686;2024-03-29T08:28:14;12.10;99.90
56512;DHT22;42408;53.238;5.686;2024-03-29T08:30:39;12.20;99.90
56512;DHT22;42408;53.238;5.686;2024-03-29T08:33:05;12.40;99.90
56512;DHT22;42408;53.238;5.686;2024-03-29T08:35:32;12.50;99.90
56512;DHT22;42408;53.238;5.686;2024-03-29T08:37:59;12.70;99.90
56512;DHT22;42408;53.238;5.686;2024-03-29T08:40:28;12.80;99.90
56512;DHT22;42408;53.238;5.686;2024-03-29T08:42:55;12.90;99.90
56512;DHT22;42408;53.238;5.686;2024-03-29T08:45:21;13.00;99.90
56512;DHT22;42408;53.238;5.686;2024-03-29T08:47:47;13.10;99.90
56512;DHT22;42408;53.238;5.686;2024-03-29T08:50:12;13.20;99.90
56512;DHT22;42408;53.238;5.686;2024-03-29T08:52:39;13.30;99.90
56512;DHT22;42408;53.238;5.686;2024-03-29T08:55:06;13.30;99.90
56512;DHT22;42408;53.238;5.686;2024-03-29T08:57:31;13.40;99.90
56512;DHT22;42408;53.238;5.686;2024-03-29T08:59:58;13.40;99.90
56512;DHT22;42408;53.238;5.686;2024-03-29T09:02:23;13.60;99.90
56512;DHT22;42408;53.238;5.686;2024-03-29T09:04:49;13.80;99.90
56512;DHT22;42408;53.238;5.686;2024-03-29T09:07:15;13.80;99.90
56512;DHT22;42408;53.238;5.686;2024-03-29T09:09:41;13.90;99.90
56512;DHT22;42408;53.238;5.686;2024-03-29T09:12:10;13.90;99.90
56512;DHT22;42408;53.238;5.686;2024-03-29T09:14:36;13.90;99.90
56512;DHT22;42408;53.238;5.686;2024-03-29T09:17:01;13.90;99.90
56512;DHT22;42408;53.238;5.686;2024-03-29T09:19:28;13.80;99.90
56512;DHT22;42408;53.238;5.686;2024-03-29T09:21:55;13.90;99.90
56512;DHT22;42408;53.238;5.686;2024-03-29T09:24:21;13.90;99.90
56512;DHT22;42408;53.238;5.686;2024-03-29T09:26:50;14.00;99.90
56512;DHT22;42408;53.238;5.686;2024-03-29T09:29:16;14.10;99.90
56512;DHT22;42408;53.238;5.686;2024-03-29T09:31:43;14.20;99.90
56512;DHT22;42408;53.238;5.686;2024-03-29T09:34:09;14.20;99.90
56512;DHT22;42408;53.238;5.686;2024-03-29T09:36:34;14.20;99.90
56512;DHT22;42408;53.238;5.686;2024-03-29T09:39:00;14.20;99.90
56512;DHT22;42408;53.238;5.686;2024-03-29T09:41:26;14.20;99.90
56512;DHT22;42408;53.238;5.686;2024-03-29T09:43:54;13.90;99.90
56512;DHT22;42408;53.238;5.686;2024-03-29T09:46:23;13.90;99.90
56512;DHT22;42408;53.238;5.686;2024-03-29T09:48:49;13.90;99.90
56512;DHT22;42408;53.238;5.686;2024-03-29T09:51:16;13.80;99.90
56512;DHT22;42408;53.238;5.686;2024-03-29T09:53:43;13.80;99.90
56512;DHT22;42408;53.238;5.686;2024-03-29T09:56:09;13.80;99.90
56512;DHT22;42408;53.238;5.686;2024-03-29T09:58:36;13.70;99.90
56512;DHT22;42408;53.238;5.686;2024-03-29T10:01:03;13.60;99.90
56512;DHT22;42408;53.238;5.686;2024-03-29T10:03:29;13.60;99.90
56512;DHT22;42408;53.238;5.686;2024-03-29T10:06:01;13.50;99.90
56512;DHT22;42408;53.238;5.686;2024-03-29T10:08:28;13.50;99.90
56512;DHT22;42408;53.238;5.686;2024-03-29T10:10:56;13.40;99.90
56512;DHT22;42408;53.238;5.686;2024-03-29T10:13:22;13.30;99.90
56512;DHT22;42408;53.238;5.686;2024-03-29T10:15:51;13.20;99.90
56512;DHT22;42408;53.238;5.686;2024-03-29T10:18:19;13.30;99.90
56512;DHT22;42408;53.238;5.686;2024-03-29T10:20:46;13.30;99.90
56512;DHT22;42408;53.238;5.686;2024-03-29T10:23:12;13.30;99.90
56512;DHT22;42408;53.238;5.686;2024-03-29T10:25:37;13.30;99.90
56512;DHT22;42408;53.238;5.686;2024-03-29T10:28:03;13.30;99.90
56512;DHT22;42408;53.238;5.686;2024-03-29T10:30:30;13.30;99.90
56512;DHT22;42408;53.238;5.686;2024-03-29T10:32:56;13.30;99.90
56512;DHT22;42408;53.238;5.686;2024-03-29T10:35:25;13.40;99.90
56512;DHT22;42408;53.238;5.686;2024-03-29T10:37:54;13.50;99.90
56512;DHT22;42408;53.238;5.686;2024-03-29T10:40:21;13.50;99.90
56512;DHT22;42408;53.238;5.686;2024-03-29T10:42:50;13.60;99.90
56512;DHT22;42408;53.238;5.686;2024-03-29T10:45:17;13.60;99.90
56512;DHT22;42408;53.238;5.686;2024-03-29T10:47:43;13.80;99.90
56512;DHT22;42408;53.238;5.686;2024-03-29T10:50:13;14.00;99.90
56512;DHT22;42408;53.238;5.686;2024-03-29T10:52:42;14.10;99.90
56512;DHT22;42408;53.238;5.686;2024-03-29T10:55:10;14.20;99.90
56512;DHT22;42408;53.238;5.686;2024-03-29T10:57:42;14.50;99.90
56512;DHT22;42408;53.238;5.686;2024-03-29T11:00:14;14.70;99.90
56512;DHT22;42408;53.238;5.686;2024-03-29T11:05:35;14.80;99.90
56512;DHT22;42408;53.238;5.686;2024-03-29T11:08:04;14.70;99.90
56512;DHT22;42408;53.238;5.686;2024-03-29T11:10:42;14.70;99.90
56512;DHT22;42408;53.238;5.686;2024-03-29T11:15:51;14.80;99.90
56512;DHT22;42408;53.238;5.686;2024-03-29T11:18:18;14.70;99.90
56512;DHT22;42408;53.238;5.686;2024-03-29T11:20:46;14.80;99.90
56512;DHT22;42408;53.238;5.686;2024-03-29T11:23:21;14.80;99.90
56512;DHT22;42408;53.238;5.686;2024-03-29T11:25:51;14.80;99.90
56512;DHT22;42408;53.238;5.686;2024-03-29T11:28:30;14.80;99.90
56512;DHT22;42408;53.238;5.686;2024-03-29T11:31:00;14.60;99.90
56512;DHT22;42408;53.238;5.686;2024-03-29T11:35:55;14.30;99.90
56512;DHT22;42408;53.238;5.686;2024-03-29T11:38:21;14.20;99.90
56512;DHT22;42408;53.238;5.686;2024-03-29T11:41:12;14.10;99.90
56512;DHT22;42408;53.238;5.686;2024-03-29T11:43:39;14.10;99.90
56512;DHT22;42408;53.238;5.686;2024-03-29T11:46:10;14.10;99.90
56512;DHT22;42408;53.238;5.686;2024-03-29T11:48:36;14.00;99.90
56512;DHT22;42408;53.238;5.686;2024-03-29T11:51:04;13.80;99.90
56512;DHT22;42408;53.238;5.686;2024-03-29T11:53:30;13.80;99.90
56512;DHT22;42408;53.238;5.686;2024-03-29T11:56:00;13.90;99.90
56512;DHT22;42408;53.238;5.686;2024-03-29T11:58:27;14.00;99.90
56512;DHT22;42408;53.238;5.686;2024-03-29T12:00:54;14.10;99.90
56512;DHT22;42408;53.238;5.686;2024-03-29T12:03:21;14.20;99.90
56512;DHT22;42408;53.238;5.686;2024-03-29T12:05:49;14.30;99.90
56512;DHT22;42408;53.238;5.686;2024-03-29T12:08:16;14.30;99.90
56512;DHT22;42408;53.238;5.686;2024-03-29T12:10:42;14.40;99.90
56512;DHT22;42408;53.238;5.686;2024-03-29T12:13:08;14.30;99.90
56512;DHT22;42408;53.238;5.686;2024-03-29T12:15:34;14.40;99.90
56512;DHT22;42408;53.238;5.686;2024-03-29T12:18:02;14.40;99.90
56512;DHT22;42408;53.238;5.686;2024-03-29T12:20:32;14.50;99.90
56512;DHT22;42408;53.238;5.686;2024-03-29T12:23:02;14.40;99.90
56512;DHT22;42408;53.238;5.686;2024-03-29T12:25:29;14.40;99.90
56512;DHT22;42408;53.238;5.686;2024-03-29T12:27:55;14.30;99.90
56512;DHT22;42408;53.238;5.686;2024-03-29T12:30:21;14.20;99.90
56512;DHT22;42408;53.238;5.686;2024-03-29T12:32:47;14.20;99.90
56512;DHT22;42408;53.238;5.686;2024-03-29T12:35:15;14.20;99.90
56512;DHT22;42408;53.238;5.686;2024-03-29T12:37:48;14.20;99.90
56512;DHT22;42408;53.238;5.686;2024-03-29T12:40:16;14.20;99.90
56512;DHT22;42408;53.238;5.686;2024-03-29T12:42:50;14.20;99.90
56512;DHT22;42408;53.238;5.686;2024-03-29T12:45:18;14.20;99.90
56512;DHT22;42408;53.238;5.686;2024-03-29T12:47:47;14.20;99.90
56512;DHT22;42408;53.238;5.686;2024-03-29T12:50:24;14.30;99.90
56512;DHT22;42408;53.238;5.686;2024-03-29T12:53:05;14.40;99.90
56512;DHT22;42408;53.238;5.686;2024-03-29T12:55:31;14.50;99.90
56512;DHT22;42408;53.238;5.686;2024-03-29T12:57:59;14.50;99.90
56512;DHT22;42408;53.238;5.686;2024-03-29T13:00:26;14.50;99.90
56512;DHT22;42408;53.238;5.686;2024-03-29T13:02:53;14.60;99.90
56512;DHT22;42408;53.238;5.686;2024-03-29T13:05:19;14.60;99.90
56512;DHT22;42408;53.238;5.686;2024-03-29T13:07:44;14.70;99.90
56512;DHT22;42408;53.238;5.686;2024-03-29T13:10:10;14.80;99.90
56512;DHT22;42408;53.238;5.686;2024-03-29T13:12:42;14.80;99.90
56512;DHT22;42408;53.238;5.686;2024-03-29T13:15:20;14.80;99.90
56512;DHT22;42408;53.238;5.686;2024-03-29T13:17:47;14.90;99.90
56512;DHT22;42408;53.238;5.686;2024-03-29T13:20:15;14.90;99.90
56512;DHT22;42408;53.238;5.686;2024-03-29T13:22:45;14.90;99.90
56512;DHT22;42408;53.238;5.686;2024-03-29T13:25:15;15.00;99.90
56512;DHT22;42408;53.238;5.686;2024-03-29T13:27:42;15.10;99.90
56512;DHT22;42408;53.238;5.686;2024-03-29T13:30:09;15.00;99.90
56512;DHT22;42408;53.238;5.686;2024-03-29T13:32:36;15.10;99.90
56512;DHT22;42408;53.238;5.686;2024-03-29T13:35:02;15.10;99.90
56512;DHT22;42408;53.238;5.686;2024-03-29T13:37:31;15.00;99.90
56512;DHT22;42408;53.238;5.686;2024-03-29T13:39:57;15.10;99.90
56512;DHT22;42408;53.238;5.686;2024-03-29T13:42:22;15.10;99.90
56512;DHT22;42408;53.238;5.686;2024-03-29T13:44:52;15.10;99.90
56512;DHT22;42408;53.238;5.686;2024-03-29T13:47:18;15.10;99.90
56512;DHT22;42408;53.238;5.686;2024-03-29T13:49:44;15.20;99.90
56512;DHT22;42408;53.238;5.686;2024-03-29T13:52:12;15.10;99.90
56512;DHT22;42408;53.238;5.686;2024-03-29T13:54:43;15.30;99.90
56512;DHT22;42408;53.238;5.686;2024-03-29T13:57:09;15.40;99.90
56512;DHT22;42408;53.238;5.686;2024-03-29T14:02:01;15.50;99.90
56512;DHT22;42408;53.238;5.686;2024-03-29T14:04:27;15.50;99.90
56512;DHT22;42408;53.238;5.686;2024-03-29T14:06:53;15.50;99.90
56512;DHT22;42408;53.238;5.686;2024-03-29T14:09:18;15.50;99.90
56512;DHT22;42408;53.238;5.686;2024-03-29T14:11:44;15.40;99.90
56512;DHT22;42408;53.238;5.686;2024-03-29T14:14:09;15.40;99.90
56512;DHT22;42408;53.238;5.686;2024-03-29T14:16:37;15.40;99.90
56512;DHT22;42408;53.238;5.686;2024-03-29T14:19:03;15.30;99.90
56512;DHT22;42408;53.238;5.686;2024-03-29T14:21:29;15.40;99.90
56512;DHT22;42408;53.238;5.686;2024-03-29T14:23:55;15.30;99.90
56512;DHT22;42408;53.238;5.686;2024-03-29T14:26:21;15.40;99.90
56512;DHT22;42408;53.238;5.686;2024-03-29T14:28:47;15.30;99.90
56512;DHT22;42408;53.238;5.686;2024-03-29T14:31:13;15.30;99.90
56512;DHT22;42408;53.238;5.686;2024-03-29T14:33:38;15.20;99.90
56512;DHT22;42408;53.238;5.686;2024-03-29T14:36:04;15.20;99.90
56512;DHT22;42408;53.238;5.686;2024-03-29T14:38:30;15.20;99.90
56512;DHT22;42408;53.238;5.686;2024-03-29T14:40:55;15.20;99.90
56512;DHT22;42408;53.238;5.686;2024-03-29T14:43:21;15.20;99.90
56512;DHT22;42408;53.238;5.686;2024-03-29T14:45:47;15.20;99.90
56512;DHT22;42408;53.238;5.686;2024-03-29T14:48:16;15.20;99.90
56512;DHT22;42408;53.238;5.686;2024-03-29T14:50:43;15.20;99.90
56512;DHT22;42408;53.238;5.686;2024-03-29T14:53:09;15.20;99.90
56512;DHT22;42408;53.238;5.686;2024-03-29T14:55:34;15.10;99.90
56512;DHT22;42408;53.238;5.686;2024-03-29T14:58:05;15.10;99.90
56512;DHT22;42408;53.238;5.686;2024-03-29T15:00:31;15.00;99.90
56512;DHT22;42408;53.238;5.686;2024-03-29T15:02:56;15.00;99.90
56512;DHT22;42408;53.238;5.686;2024-03-29T15:05:22;14.90;99.90
56512;DHT22;42408;53.238;5.686;2024-03-29T15:07:49;14.80;99.90
56512;DHT22;42408;53.238;5.686;2024-03-29T15:10:15;14.70;99.90
56512;DHT22;42408;53.238;5.686;2024-03-29T15:12:41;14.70;99.90
56512;DHT22;42408;53.238;5.686;2024-03-29T15:15:07;14.80;99.90
56512;DHT22;42408;53.238;5.686;2024-03-29T15:17:32;14.80;99.90
56512;DHT22;42408;53.238;5.686;2024-03-29T15:19:58;14.90;99.90
56512;DHT22;42408;53.238;5.686;2024-03-29T15:22:24;14.90;99.90
56512;DHT22;42408;53.238;5.686;2024-03-29T15:24:50;14.90;99.90
56512;DHT22;42408;53.238;5.686;2024-03-29T15:27:18;14.90;99.90
56512;DHT22;42408;53.238;5.686;2024-03-29T15:30:15;15.00;99.90
56512;DHT22;42408;53.238;5.686;2024-03-29T15:32:41;15.00;99.90
56512;DHT22;42408;53.238;5.686;2024-03-29T15:35:08;15.00;99.90
56512;DHT22;42408;53.238;5.686;2024-03-29T15:37:35;15.10;99.90
56512;DHT22;42408;53.238;5.686;2024-03-29T15:40:00;15.10;99.90
56512;DHT22;42408;53.238;5.686;2024-03-29T15:42:26;15.10;99.90
56512;DHT22;42408;53.238;5.686;2024-03-29T15:44:52;15.10;99.90
56512;DHT22;42408;53.238;5.686;2024-03-29T15:47:18;15.10;99.90
56512;DHT22;42408;53.238;5.686;2024-03-29T15:49:44;15.00;99.90